createdAt,value
2023-01-30T00:00:58.433Z,98570.91
2023-01-30T00:03:25.767Z,98562.44
2023-01-30T00:05:52.627Z,98547.59
2023-01-30T00:08:19.890Z,98547.56
2023-01-30T00:10:47.475Z,98547.69
2023-01-30T00:13:15.307Z,98546.97
2023-01-30T00:15:42.570Z,98547.03
2023-01-30T00:18:09.769Z,98544.47
2023-01-30T00:20:37.279Z,98531.75
2023-01-30T00:23:04.484Z,98530.81
2023-01-30T00:25:31.912Z,98529.41
2023-01-30T00:28:02.309Z,98527.22
2023-01-30T00:30:30.171Z,98526.50
2023-01-30T00:32:58.033Z,98524.72
2023-01-30T00:35:28.864Z,98522.87
2023-01-30T00:37:57.893Z,98526.19
2023-01-30T00:40:26.161Z,98524.50
2023-01-30T00:46:03.328Z,98527.75
2023-01-30T00:48:30.676Z,98529.31
2023-01-30T00:50:59.557Z,98519.56
2023-01-30T00:53:26.544Z,98518.66
2023-01-30T00:55:54.213Z,98512.75
2023-01-30T00:58:22.534Z,98514.56
2023-01-30T01:00:50.208Z,98512.00
2023-01-30T01:03:17.217Z,98511.97
2023-01-30T01:05:44.656Z,98508.56
2023-01-30T01:08:12.123Z,98510.94
2023-01-30T01:10:39.019Z,98513.53
2023-01-30T01:13:07.126Z,98505.63
2023-01-30T01:15:34.146Z,98499.97
2023-01-30T01:18:01.056Z,98492.97
2023-01-30T01:20:27.948Z,98484.66
2023-01-30T01:22:56.331Z,98485.44
2023-01-30T01:25:24.319Z,98484.56
2023-01-30T01:27:51.200Z,98487.06
2023-01-30T01:30:18.795Z,98482.03
2023-01-30T01:32:45.731Z,98475.16
2023-01-30T01:35:12.773Z,98476.75
2023-01-30T01:37:39.662Z,98481.34
2023-01-30T01:40:26.041Z,98465.06
2023-01-30T01:42:52.986Z,98473.25
2023-01-30T01:45:24.764Z,98467.41
2023-01-30T01:48:00.832Z,98471.78
2023-01-30T01:50:40.930Z,98466.63
2023-01-30T01:53:08.927Z,98462.37
2023-01-30T01:55:36.078Z,98463.31
2023-01-30T01:58:25.520Z,98457.09
2023-01-30T02:00:52.960Z,98458.91
2023-01-30T02:03:23.595Z,98446.44
2023-01-30T02:05:52.830Z,98444.75
2023-01-30T02:08:37.875Z,98446.09
2023-01-30T02:11:23.374Z,98448.97
2023-01-30T02:13:51.093Z,98441.78
2023-01-30T02:16:18.330Z,98438.37
2023-01-30T02:18:46.045Z,98434.19
2023-01-30T02:21:45.519Z,98430.66
2023-01-30T02:24:43.525Z,98434.16
2023-01-30T02:27:10.288Z,98427.00
2023-01-30T02:29:49.048Z,98416.47
2023-01-30T02:32:54.497Z,98415.09
2023-01-30T02:35:43.507Z,98413.81
2023-01-30T02:38:10.330Z,98399.53
2023-01-30T02:40:53.650Z,98396.06
2023-01-30T02:43:29.065Z,98400.06
2023-01-30T02:46:21.551Z,98386.94
2023-01-30T02:49:00.141Z,98385.31
2023-01-30T02:51:30.457Z,98383.50
2023-01-30T02:53:58.084Z,98376.31
2023-01-30T02:56:25.022Z,98369.94
2023-01-30T02:59:06.347Z,98368.03
2023-01-30T03:01:51.904Z,98367.12
2023-01-30T03:04:43.419Z,98360.47
2023-01-30T03:07:19.303Z,98351.84
2023-01-30T03:10:11.024Z,98350.88
2023-01-30T03:12:52.873Z,98355.00
2023-01-30T03:15:28.889Z,98354.31
2023-01-30T03:17:56.226Z,98349.75
2023-01-30T03:20:23.552Z,98345.41
2023-01-30T03:22:50.406Z,98339.16
2023-01-30T03:25:22.143Z,98344.16
2023-01-30T03:27:51.222Z,98339.63
2023-01-30T03:30:18.561Z,98325.31
2023-01-30T03:32:45.436Z,98333.03
2023-01-30T03:35:12.920Z,98328.50
2023-01-30T03:37:39.803Z,98317.91
2023-01-30T03:40:07.428Z,98322.25
2023-01-30T03:42:34.283Z,98321.09
2023-01-30T03:45:01.153Z,98317.22
2023-01-30T03:47:28.002Z,98316.09
2023-01-30T03:49:54.870Z,98311.00
2023-01-30T03:52:22.032Z,98314.38
2023-01-30T03:54:48.907Z,98309.56
2023-01-30T03:57:15.752Z,98309.37
2023-01-30T03:59:42.573Z,98306.16
2023-01-30T04:02:09.677Z,98310.50
2023-01-30T04:04:36.574Z,98308.78
2023-01-30T04:07:03.624Z,98307.56
2023-01-30T04:09:30.465Z,98297.50
2023-01-30T04:11:58.371Z,98298.28
2023-01-30T04:14:25.225Z,98293.31
2023-01-30T04:16:52.093Z,98291.91
2023-01-30T04:19:18.959Z,98302.84
2023-01-30T04:21:45.894Z,98291.06
2023-01-30T04:24:12.815Z,98285.31
2023-01-30T04:26:39.694Z,98282.31
2023-01-30T04:29:06.630Z,98277.84
2023-01-30T04:31:33.689Z,98284.16
2023-01-30T04:34:00.708Z,98287.34
2023-01-30T04:36:29.425Z,98272.59
2023-01-30T04:38:59.139Z,98279.75
2023-01-30T04:41:26.068Z,98272.78
2023-01-30T04:43:52.918Z,98275.19
2023-01-30T04:46:19.817Z,98265.38
2023-01-30T04:48:46.687Z,98269.56
2023-01-30T04:51:14.803Z,98260.88
2023-01-30T04:53:41.620Z,98259.28
2023-01-30T04:56:08.916Z,98254.03
2023-01-30T04:58:35.778Z,98249.06
2023-01-30T05:01:21.334Z,98243.06
2023-01-30T05:03:54.992Z,98244.72
2023-01-30T05:06:22.611Z,98243.25
2023-01-30T05:08:50.501Z,98244.88
2023-01-30T05:11:18.980Z,98242.47
2023-01-30T05:13:45.915Z,98234.91
2023-01-30T05:16:13.281Z,98229.97
2023-01-30T05:18:40.168Z,98228.13
2023-01-30T05:21:09.087Z,98224.53
2023-01-30T05:23:36.355Z,98232.13
2023-01-30T05:26:03.786Z,98230.53
2023-01-30T05:28:31.027Z,98227.94
2023-01-30T05:31:05.985Z,98237.03
2023-01-30T05:33:33.110Z,98232.87
2023-01-30T05:36:00.360Z,98228.50
2023-01-30T05:38:27.569Z,98227.66
2023-01-30T05:41:04.301Z,98232.44
2023-01-30T05:43:31.842Z,98228.19
2023-01-30T05:46:00.071Z,98227.94
2023-01-30T05:48:28.725Z,98229.50
2023-01-30T05:50:57.891Z,98225.28
2023-01-30T05:53:28.051Z,98225.97
2023-01-30T05:55:58.865Z,98216.31
2023-01-30T05:58:26.037Z,98221.50
2023-01-30T06:00:54.026Z,98225.00
2023-01-30T06:03:21.214Z,98220.25
2023-01-30T06:05:48.090Z,98219.16
2023-01-30T06:08:14.992Z,98223.69
2023-01-30T06:10:41.860Z,98235.47
2023-01-30T06:13:11.192Z,98241.47
2023-01-30T06:15:38.394Z,98239.91
2023-01-30T06:18:05.464Z,98233.91
2023-01-30T06:20:32.392Z,98230.22
2023-01-30T06:22:59.229Z,98223.81
2023-01-30T06:25:26.217Z,98233.13
2023-01-30T06:27:53.169Z,98228.47
2023-01-30T06:30:20.280Z,98229.50
2023-01-30T06:32:50.987Z,98227.81
2023-01-30T06:35:18.068Z,98234.69
2023-01-30T06:37:45.574Z,98237.31
2023-01-30T06:40:13.470Z,98238.28
2023-01-30T06:42:45.324Z,98222.38
2023-01-30T06:45:13.507Z,98223.19
2023-01-30T06:47:51.454Z,98230.88
2023-01-30T06:50:19.928Z,98228.16
2023-01-30T06:52:48.734Z,98220.66
2023-01-30T06:55:17.867Z,98226.78
2023-01-30T06:57:45.891Z,98233.47
2023-01-30T07:00:18.337Z,98224.44
2023-01-30T07:02:46.067Z,98223.22
2023-01-30T07:05:13.291Z,98230.06
2023-01-30T07:07:40.128Z,98223.91
2023-01-30T07:10:09.210Z,98225.06
2023-01-30T07:12:37.041Z,98219.34
2023-01-30T07:15:05.399Z,98210.03
2023-01-30T07:17:32.754Z,98209.22
2023-01-30T07:20:00.016Z,98213.44
2023-01-30T07:22:26.959Z,98216.87
2023-01-30T07:24:53.851Z,98208.44
2023-01-30T07:27:20.844Z,98201.63
2023-01-30T07:29:47.723Z,98194.78
2023-01-30T07:32:18.580Z,98194.87
2023-01-30T07:34:45.897Z,98199.03
2023-01-30T07:37:13.162Z,98191.31
2023-01-30T07:39:40.040Z,98186.03
2023-01-30T07:42:07.070Z,98187.91
2023-01-30T07:44:34.399Z,98203.00
2023-01-30T07:47:01.761Z,98203.94
2023-01-30T07:49:28.730Z,98207.41
2023-01-30T07:51:55.677Z,98208.31
2023-01-30T07:54:22.542Z,98210.06
2023-01-30T07:56:49.318Z,98203.28
2023-01-30T07:59:16.196Z,98185.53
2023-01-30T08:01:43.059Z,98175.41
2023-01-30T08:04:09.730Z,98172.00
2023-01-30T08:06:39.401Z,98168.56
2023-01-30T08:09:07.130Z,98162.56
2023-01-30T08:11:34.467Z,98160.03
2023-01-30T08:14:01.582Z,98162.59
2023-01-30T08:16:28.658Z,98159.34
2023-01-30T08:18:55.594Z,98157.66
2023-01-30T08:21:22.484Z,98162.72
2023-01-30T08:23:49.455Z,98159.34
2023-01-30T08:26:16.553Z,98148.34
2023-01-30T08:28:43.464Z,98139.06
2023-01-30T08:31:11.132Z,98118.75
2023-01-30T08:33:38.176Z,98124.69
2023-01-30T08:36:05.680Z,98108.59
2023-01-30T08:38:32.558Z,98100.12
2023-01-30T08:41:01.196Z,98090.00
2023-01-30T08:43:28.137Z,98089.16
2023-01-30T08:45:55.683Z,98091.66
2023-01-30T08:48:23.124Z,98091.62
2023-01-30T08:50:54.327Z,98089.81
2023-01-30T08:53:21.556Z,98100.63
2023-01-30T08:55:52.929Z,98100.63
2023-01-30T08:58:22.944Z,98102.50
2023-01-30T09:00:50.644Z,98095.66
2023-01-30T09:03:18.707Z,98113.50
2023-01-30T09:05:46.119Z,98109.34
2023-01-30T09:08:13.359Z,98104.28
2023-01-30T09:10:40.280Z,98097.44
2023-01-30T09:13:09.758Z,98099.19
2023-01-30T09:15:36.982Z,98101.69
2023-01-30T09:18:05.160Z,98094.09
2023-01-30T09:20:32.168Z,98085.59
2023-01-30T09:22:59.340Z,98089.84
2023-01-30T09:25:26.367Z,98083.16
2023-01-30T09:27:53.774Z,98087.25
2023-01-30T09:30:21.195Z,98086.38
2023-01-30T09:32:48.504Z,98090.66
2023-01-30T09:35:15.509Z,98096.59
2023-01-30T09:37:52.354Z,98099.16
2023-01-30T09:40:25.446Z,98103.25
2023-01-30T09:43:11.251Z,98095.63
2023-01-30T09:45:47.745Z,98088.03
2023-01-30T09:48:20.620Z,98080.44
2023-01-30T09:50:58.159Z,98075.47
2023-01-30T09:53:37.194Z,98067.88
2023-01-30T09:56:04.298Z,98072.87
2023-01-30T09:58:55.043Z,98063.50
2023-01-30T10:02:00.732Z,98060.94
2023-01-30T10:04:51.722Z,98060.81
2023-01-30T10:07:35.195Z,98051.50
2023-01-30T10:10:23.610Z,98059.72
2023-01-30T10:12:54.688Z,98055.19
2023-01-30T10:15:43.543Z,98046.53
2023-01-30T10:18:13.546Z,98043.03
2023-01-30T10:20:52.947Z,98048.88
2023-01-30T10:23:25.894Z,98050.78
2023-01-30T10:26:05.659Z,98042.16
2023-01-30T10:28:36.259Z,98023.44
2023-01-30T10:31:09.124Z,98030.25
2023-01-30T10:33:45.136Z,98026.94
2023-01-30T10:36:16.211Z,98028.13
2023-01-30T10:38:52.197Z,98027.25
2023-01-30T10:41:42.738Z,98019.34
2023-01-30T10:44:12.766Z,98010.44
2023-01-30T10:47:01.356Z,97999.53
2023-01-30T10:49:42.938Z,97978.88
2023-01-30T10:52:36.550Z,97975.72
2023-01-30T10:55:38.240Z,97965.94
2023-01-30T10:58:43.047Z,97963.59
2023-01-30T11:01:17.873Z,97960.41
2023-01-30T11:03:48.819Z,97966.37
2023-01-30T11:06:18.929Z,97951.13
2023-01-30T11:08:46.281Z,97947.81
2023-01-30T11:11:43.328Z,97949.81
2023-01-30T11:14:11.964Z,97941.25
2023-01-30T11:16:55.589Z,97932.47
2023-01-30T11:19:31.968Z,97933.00
2023-01-30T11:22:04.209Z,97922.38
2023-01-30T11:24:32.665Z,97915.16
2023-01-30T11:27:24.969Z,97906.09
2023-01-30T11:30:03.818Z,97893.94
2023-01-30T11:32:30.803Z,97890.84
2023-01-30T11:35:06.665Z,97888.41
2023-01-30T11:37:36.171Z,97868.47
2023-01-30T11:40:18.774Z,97874.59
2023-01-30T11:42:50.847Z,97858.78
2023-01-30T11:45:21.458Z,97857.06
2023-01-30T11:48:04.712Z,97851.91
2023-01-30T11:50:41.974Z,97850.38
2023-01-30T11:53:22.619Z,97845.78
2023-01-30T11:56:02.200Z,97837.56
2023-01-30T11:58:33.469Z,97830.72
2023-01-30T12:01:00.704Z,97827.59
2023-01-30T12:03:29.592Z,97824.53
2023-01-30T12:05:58.386Z,97820.84
2023-01-30T12:08:41.176Z,97805.34
2023-01-30T12:11:26.102Z,97791.97
2023-01-30T12:14:14.869Z,97794.00
2023-01-30T12:17:16.565Z,97794.59
2023-01-30T12:19:54.551Z,97777.78
2023-01-30T12:22:53.669Z,97789.34
2023-01-30T12:25:30.073Z,97779.00
2023-01-30T12:28:02.328Z,97772.16
2023-01-30T12:31:07.829Z,97773.50
2023-01-30T12:33:35.741Z,97757.91
2023-01-30T12:36:14.823Z,97763.50
2023-01-30T12:39:12.219Z,97765.78
2023-01-30T12:45:15.350Z,97760.37
2023-01-30T12:47:48.874Z,97744.97
2023-01-30T12:50:36.789Z,97742.84
2023-01-30T12:53:06.648Z,97744.66
2023-01-30T12:55:58.251Z,97725.09
2023-01-30T12:58:37.342Z,97721.75
2023-01-30T13:01:22.498Z,97710.31
2023-01-30T13:04:02.211Z,97700.72
2023-01-30T13:07:08.175Z,97694.59
2023-01-30T13:09:57.850Z,97690.84
2023-01-30T13:12:27.787Z,97681.03
2023-01-30T13:15:11.300Z,97684.50
2023-01-30T13:17:56.501Z,97684.37
2023-01-30T13:20:41.699Z,97677.22
2023-01-30T13:23:19.719Z,97682.00
2023-01-30T13:26:21.070Z,97671.19
2023-01-30T13:28:50.659Z,97668.37
2023-01-30T13:31:21.915Z,97664.69
2023-01-30T13:33:51.274Z,97668.94
2023-01-30T13:36:25.265Z,97668.97
2023-01-30T13:39:15.043Z,97664.53
2023-01-30T13:41:46.039Z,97650.78
2023-01-30T13:44:21.127Z,97663.47
2023-01-30T13:46:48.893Z,97646.00
2023-01-30T13:49:27.819Z,97639.78
2023-01-30T13:52:03.301Z,97632.47
2023-01-30T13:54:30.062Z,97640.84
2023-01-30T13:56:58.292Z,97635.06
2023-01-30T13:59:47.213Z,97629.94
2023-01-30T14:02:19.452Z,97633.97
2023-01-30T14:04:59.489Z,97638.72
2023-01-30T14:07:55.790Z,97635.03
2023-01-30T14:10:23.851Z,97640.41
2023-01-30T14:12:53.108Z,97644.13
2023-01-30T14:15:26.204Z,97648.22
2023-01-30T14:18:07.473Z,97635.16
2023-01-30T14:20:38.016Z,97629.50
2023-01-30T14:23:07.303Z,97629.34
2023-01-30T14:25:36.324Z,97636.09
2023-01-30T14:28:06.194Z,97634.84
2023-01-30T14:30:53.183Z,97626.16
2023-01-30T14:33:20.051Z,97630.44
2023-01-30T14:35:48.960Z,97637.00
2023-01-30T14:38:18.131Z,97641.22
2023-01-30T14:40:50.074Z,97635.19
2023-01-30T14:43:25.751Z,97637.00
2023-01-30T14:45:57.716Z,97635.22
2023-01-30T14:49:05.245Z,97642.31
2023-01-30T14:51:39.896Z,97646.63
2023-01-30T14:54:25.464Z,97643.84
2023-01-30T14:57:00.370Z,97652.25
2023-01-30T14:59:29.643Z,97662.91
2023-01-30T15:02:14.968Z,97652.81
2023-01-30T15:04:47.758Z,97658.44
2023-01-30T15:07:21.313Z,97668.09
2023-01-30T15:10:01.743Z,97663.88
2023-01-30T15:12:34.191Z,97661.59
2023-01-30T15:15:13.063Z,97674.47
2023-01-30T15:18:07.936Z,97674.56
2023-01-30T15:20:55.623Z,97679.84
2023-01-30T15:23:35.879Z,97670.66
2023-01-30T15:26:18.661Z,97674.13
2023-01-30T15:29:42.734Z,97655.38
2023-01-30T15:32:20.717Z,97662.06
2023-01-30T15:34:56.536Z,97670.81
2023-01-30T15:37:41.549Z,97675.31
2023-01-30T15:40:18.576Z,97675.69
2023-01-30T15:43:04.681Z,97690.56
2023-01-30T15:45:40.632Z,97715.72
2023-01-30T15:48:29.387Z,97726.53
2023-01-30T15:50:59.240Z,97737.31
2023-01-30T15:53:33.926Z,97732.69
2023-01-30T15:56:02.587Z,97738.47
2023-01-30T15:58:30.392Z,97745.22
2023-01-30T16:00:59.816Z,97741.09
2023-01-30T16:03:30.324Z,97745.97
2023-01-30T16:05:58.491Z,97749.72
2023-01-30T16:08:30.237Z,97749.28
2023-01-30T16:10:57.163Z,97751.19
2023-01-30T16:13:24.316Z,97759.59
2023-01-30T16:15:56.725Z,97748.53
2023-01-30T16:18:36.361Z,97751.13
2023-01-30T16:21:10.410Z,97764.75
2023-01-30T16:23:40.999Z,97762.22
2023-01-30T16:26:13.337Z,97750.38
2023-01-30T16:28:41.112Z,97769.22
2023-01-30T16:31:09.969Z,97782.06
2023-01-30T16:33:37.573Z,97778.41
2023-01-30T16:36:05.509Z,97783.56
2023-01-30T16:38:38.228Z,97784.44
2023-01-30T16:41:05.406Z,97774.16
2023-01-30T16:43:33.864Z,97756.78
2023-01-30T16:46:22.319Z,97760.75
2023-01-30T16:48:50.050Z,97765.34
2023-01-30T16:51:22.162Z,97782.19
2023-01-30T16:53:58.949Z,97769.22
2023-01-30T16:56:26.552Z,97776.53
2023-01-30T16:58:57.260Z,97766.19
2023-01-30T17:01:35.322Z,97775.44
2023-01-30T17:04:03.906Z,97774.19
2023-01-30T17:06:36.583Z,97755.56
2023-01-30T17:09:05.600Z,97742.28
2023-01-30T17:11:39.725Z,97754.00
2023-01-30T17:14:30.705Z,97755.03
2023-01-30T17:17:01.773Z,97764.62
2023-01-30T17:19:28.695Z,97762.47
2023-01-30T17:21:57.246Z,97756.72
2023-01-30T17:24:25.480Z,97763.53
2023-01-30T17:26:59.351Z,97764.38
2023-01-30T17:29:41.927Z,97770.97
2023-01-30T17:32:14.441Z,97769.03
2023-01-30T17:34:41.674Z,97763.31
2023-01-30T17:37:23.201Z,97767.75
2023-01-30T17:39:50.218Z,97776.69
2023-01-30T17:44:52.602Z,97769.50
2023-01-30T17:47:19.478Z,97776.88
2023-01-30T17:49:46.375Z,97769.41
2023-01-30T17:52:15.513Z,97769.94
2023-01-30T17:54:42.402Z,97778.41
2023-01-30T17:57:12.194Z,97780.06
2023-01-30T17:59:39.084Z,97781.41
2023-01-30T18:02:10.213Z,97778.22
2023-01-30T18:04:37.163Z,97782.06
2023-01-30T18:07:06.494Z,97786.31
2023-01-30T18:09:33.434Z,97793.06
2023-01-30T18:12:00.440Z,97796.94
2023-01-30T18:14:27.454Z,97795.88
2023-01-30T18:17:00.096Z,97797.69
2023-01-30T18:19:28.364Z,97801.38
2023-01-30T18:21:55.237Z,97794.41
2023-01-30T18:24:22.178Z,97797.31
2023-01-30T18:26:49.230Z,97810.59
2023-01-30T18:29:16.596Z,97807.19
2023-01-30T18:31:43.606Z,97802.22
2023-01-30T18:34:11.354Z,97808.84
2023-01-30T18:36:38.393Z,97801.75
2023-01-30T18:39:06.149Z,97792.19
2023-01-30T18:41:33.114Z,97782.63
2023-01-30T18:44:02.004Z,97759.97
2023-01-30T18:46:29.416Z,97755.84
2023-01-30T18:48:57.238Z,97759.91
2023-01-30T18:51:33.917Z,97756.94
2023-01-30T18:54:01.676Z,97772.50
2023-01-30T18:56:33.710Z,97761.63
2023-01-30T18:59:04.121Z,97757.34
2023-01-30T19:01:38.233Z,97771.03
2023-01-30T19:04:07.111Z,97773.47
2023-01-30T19:06:36.672Z,97780.81
2023-01-30T19:09:04.471Z,97782.91
2023-01-30T19:11:50.006Z,97791.06
2023-01-30T19:14:16.890Z,97792.78
2023-01-30T19:16:43.817Z,97798.28
2023-01-30T19:19:10.814Z,97801.19
2023-01-30T19:21:38.109Z,97795.25
2023-01-30T19:24:09.179Z,97805.94
2023-01-30T19:26:36.119Z,97794.53
2023-01-30T19:29:03.264Z,97800.09
2023-01-30T19:31:30.275Z,97802.88
2023-01-30T19:33:59.067Z,97800.75
2023-01-30T19:36:27.341Z,97809.06
2023-01-30T19:38:54.450Z,97804.44
2023-01-30T19:41:25.678Z,97812.41
2023-01-30T19:43:53.667Z,97810.09
2023-01-30T19:46:21.451Z,97806.09
2023-01-30T19:48:49.031Z,97809.31
2023-01-30T19:51:21.287Z,97811.25
2023-01-30T19:54:02.536Z,97810.69
2023-01-30T19:56:30.386Z,97805.03
2023-01-30T19:58:59.090Z,97800.97
2023-01-30T20:01:29.809Z,97795.88
2023-01-30T20:03:57.502Z,97792.75
2023-01-30T20:06:29.543Z,97781.84
2023-01-30T20:09:00.095Z,97789.38
2023-01-30T20:11:27.465Z,97775.87
2023-01-30T20:13:54.373Z,97771.69
2023-01-30T20:16:25.550Z,97777.56
2023-01-30T20:18:57.588Z,97780.78
2023-01-30T20:21:24.802Z,97781.97
2023-01-30T20:23:52.487Z,97774.25
2023-01-30T20:26:22.181Z,97783.34
2023-01-30T20:28:49.547Z,97780.06
2023-01-30T20:31:21.250Z,97779.41
2023-01-30T20:33:48.543Z,97780.94
2023-01-30T20:36:18.829Z,97789.44
2023-01-30T20:38:47.723Z,97778.97
2023-01-30T20:41:22.210Z,97785.72
2023-01-30T20:43:51.319Z,97781.50
2023-01-30T20:46:23.365Z,97793.69
2023-01-30T20:48:54.137Z,97794.78
2023-01-30T20:51:24.654Z,97801.41
2023-01-30T20:53:55.177Z,97797.28
2023-01-30T20:56:23.300Z,97804.72
2023-01-30T20:58:50.714Z,97799.00
2023-01-30T21:01:20.327Z,97811.91
2023-01-30T21:03:49.571Z,97808.19
2023-01-30T21:06:41.699Z,97806.94
2023-01-30T21:09:08.501Z,97811.63
2023-01-30T21:11:35.546Z,97814.06
2023-01-30T21:14:02.564Z,97810.72
2023-01-30T21:16:31.669Z,97815.38
2023-01-30T21:19:02.329Z,97813.56
2023-01-30T21:21:32.172Z,97814.37
2023-01-30T21:24:05.937Z,97816.00
2023-01-30T21:26:35.779Z,97803.97
2023-01-30T21:29:04.208Z,97806.97
2023-01-30T21:31:32.644Z,97817.91
2023-01-30T21:33:59.932Z,97812.28
2023-01-30T21:36:27.456Z,97810.25
2023-01-30T21:39:13.256Z,97810.59
2023-01-30T21:42:01.298Z,97802.97
2023-01-30T21:44:33.076Z,97800.50
2023-01-30T21:47:00.398Z,97792.88
2023-01-30T21:49:28.135Z,97819.47
2023-01-30T21:51:55.488Z,97808.22
2023-01-30T21:54:22.999Z,97817.56
2023-01-30T21:56:50.537Z,97818.44
2023-01-30T21:59:17.448Z,97816.03
2023-01-30T22:01:44.563Z,97814.13
2023-01-30T22:04:16.373Z,97815.78
2023-01-30T22:06:43.735Z,97819.03
2023-01-30T22:09:14.540Z,97829.50
2023-01-30T22:11:41.983Z,97837.56
2023-01-30T22:14:09.036Z,97835.87
2023-01-30T22:16:36.261Z,97841.00
2023-01-30T22:19:04.775Z,97846.75
2023-01-30T22:21:35.172Z,97841.81
2023-01-30T22:24:03.235Z,97845.13
2023-01-30T22:26:30.479Z,97837.34
2023-01-30T22:28:59.013Z,97852.69
2023-01-30T22:31:27.879Z,97840.56
2023-01-30T22:33:56.591Z,97848.28
2023-01-30T22:36:25.666Z,97852.66
2023-01-30T22:38:52.697Z,97853.25
2023-01-30T22:41:21.817Z,97852.00
2023-01-30T22:43:57.305Z,97854.19
2023-01-30T22:46:27.488Z,97855.59
2023-01-30T22:48:54.933Z,97846.03
2023-01-30T22:51:27.008Z,97843.72
2023-01-30T22:53:57.776Z,97834.72
2023-01-30T22:56:26.718Z,97838.84
2023-01-30T22:58:54.042Z,97834.81
2023-01-30T23:01:23.938Z,97838.28
2023-01-30T23:03:55.709Z,97839.00
2023-01-30T23:06:23.066Z,97834.53
2023-01-30T23:08:50.833Z,97840.78
2023-01-30T23:11:23.991Z,97834.88
2023-01-30T23:13:53.485Z,97839.00
2023-01-30T23:16:22.929Z,97849.09
2023-01-30T23:18:56.298Z,97841.81
2023-01-30T23:21:36.016Z,97840.78
2023-01-30T23:24:11.493Z,97842.50
2023-01-30T23:26:40.496Z,97841.03
2023-01-30T23:29:09.115Z,97830.38
2023-01-30T23:31:36.784Z,97829.50
2023-01-30T23:34:06.414Z,97826.06
2023-01-30T23:36:33.846Z,97819.41
2023-01-30T23:39:01.281Z,97824.31
2023-01-30T23:41:30.652Z,97830.56
2023-01-30T23:43:58.566Z,97815.47
2023-01-30T23:46:27.986Z,97825.47
2023-01-30T23:48:57.047Z,97814.91
2023-01-30T23:51:26.354Z,97826.50
2023-01-30T23:53:53.699Z,97814.63
2023-01-30T23:56:21.758Z,97818.16
2023-01-30T23:58:50.008Z,97821.16
